createdAt,value
2019-02-05T00:01:40.318Z,95585.15
2019-02-05T00:04:08.946Z,95593.34
2019-02-05T00:06:37.631Z,95609.03
2019-02-05T00:09:10.535Z,95610.95
2019-02-05T00:11:39.120Z,95608.86
2019-02-05T00:14:07.751Z,95627.59
2019-02-05T00:16:36.467Z,95621.55
2019-02-05T00:19:05.374Z,95619.23
2019-02-05T00:21:34.185Z,95620.22
2019-02-05T00:24:02.934Z,95618.57
2019-02-05T00:26:31.571Z,95612.79
2019-02-05T00:29:00.136Z,95605.42
2019-02-05T00:31:28.692Z,95616.09
2019-02-05T00:33:57.254Z,95605.30
2019-02-05T00:36:25.836Z,95596.19
2019-02-05T00:38:54.478Z,95583.98
2019-02-05T00:41:23.172Z,95580.53
2019-02-05T00:43:51.752Z,95587.13
2019-02-05T00:46:20.376Z,95581.66
2019-02-05T00:48:49.342Z,95591.69
2019-02-05T00:51:18.136Z,95605.23
2019-02-05T00:53:46.802Z,95598.70
2019-02-05T00:56:17.639Z,95601.73
2019-02-05T00:58:45.943Z,95602.71
2019-02-05T01:01:15.518Z,95618.08
2019-02-05T01:03:44.453Z,95618.05
2019-02-05T01:06:13.111Z,95615.88
2019-02-05T01:08:41.669Z,95619.53
2019-02-05T01:11:10.232Z,95617.25
2019-02-05T01:13:38.790Z,95616.55
2019-02-05T01:16:07.446Z,95607.78
2019-02-05T01:18:36.293Z,95601.81
2019-02-05T01:21:05.024Z,95616.05
2019-02-05T01:23:33.586Z,95618.16
2019-02-05T01:26:02.205Z,95613.70
2019-02-05T01:28:31.014Z,95605.42
2019-02-05T01:30:59.589Z,95601.81
2019-02-05T01:33:28.358Z,95600.38
2019-02-05T01:35:56.941Z,95604.28
2019-02-05T01:38:25.524Z,95602.84
2019-02-05T01:40:54.106Z,95601.77
2019-02-05T01:43:22.690Z,95599.39
2019-02-05T01:45:51.263Z,95602.56
2019-02-05T01:48:19.831Z,95586.38
2019-02-05T01:50:48.641Z,95587.31
2019-02-05T01:53:17.224Z,95587.35
2019-02-05T01:55:45.871Z,95597.32
2019-02-05T01:58:14.482Z,95592.57
2019-02-05T02:00:43.046Z,95593.85
2019-02-05T02:03:11.739Z,95604.77
2019-02-05T02:05:40.586Z,95598.88
2019-02-05T02:08:09.340Z,95603.82
2019-02-05T02:10:37.867Z,95594.20
2019-02-05T02:13:06.502Z,95587.05
2019-02-05T02:15:35.141Z,95584.62
2019-02-05T02:18:03.874Z,95588.92
2019-02-05T02:20:32.439Z,95588.68
2019-02-05T02:23:00.994Z,95586.59
2019-02-05T02:25:29.570Z,95585.92
2019-02-05T02:27:58.226Z,95590.80
2019-02-05T02:30:29.530Z,95596.23
2019-02-05T02:32:58.395Z,95598.10
2019-02-05T02:35:26.956Z,95610.63
2019-02-05T02:37:55.700Z,95600.09
2019-02-05T02:40:24.266Z,95602.17
2019-02-05T02:42:52.993Z,95607.47
2019-02-05T02:45:21.634Z,95621.10
2019-02-05T02:47:50.539Z,95620.14
2019-02-05T02:50:19.205Z,95619.97
2019-02-05T02:52:48.162Z,95625.06
2019-02-05T02:55:16.803Z,95625.34
2019-02-05T02:57:45.438Z,95623.21
2019-02-05T03:00:16.249Z,95616.62
2019-02-05T03:02:45.287Z,95627.84
2019-02-05T03:05:15.680Z,95617.42
2019-02-05T03:07:44.792Z,95617.55
2019-02-05T03:10:16.724Z,95612.03
2019-02-05T03:12:45.289Z,95609.73
2019-02-05T03:15:13.996Z,95615.45
2019-02-05T03:17:42.582Z,95616.86
2019-02-05T03:20:11.991Z,95618.01
2019-02-05T03:22:40.562Z,95620.61
2019-02-05T03:25:10.725Z,95616.55
2019-02-05T03:27:39.297Z,95613.88
2019-02-05T03:30:10.545Z,95616.96
2019-02-05T03:32:39.367Z,95624.20
2019-02-05T03:35:08.025Z,95612.38
2019-02-05T03:37:36.578Z,95625.36
2019-02-05T03:40:11.474Z,95621.61
2019-02-05T03:42:40.040Z,95625.36
2019-02-05T03:45:09.004Z,95636.07
2019-02-05T03:47:37.641Z,95634.23
2019-02-05T03:50:06.353Z,95635.84
2019-02-05T03:52:42.811Z,95634.50
2019-02-05T03:55:37.206Z,95640.16
2019-02-05T03:58:32.338Z,95635.80
2019-02-05T04:01:39.713Z,95633.97
2019-02-05T04:04:33.416Z,95628.70
2019-02-05T04:07:33.609Z,95628.20
2019-02-05T04:10:40.027Z,95629.08
2019-02-05T04:13:26.515Z,95622.01
2019-02-05T04:16:25.431Z,95622.83
2019-02-05T04:19:42.931Z,95630.33
2019-02-05T04:22:48.793Z,95625.05
2019-02-05T04:25:58.391Z,95623.09
2019-02-05T04:29:10.375Z,95622.58
2019-02-05T04:32:01.379Z,95629.77
2019-02-05T04:34:43.832Z,95615.66
2019-02-05T04:37:42.601Z,95618.35
2019-02-05T04:40:36.258Z,95628.72
2019-02-05T04:43:37.245Z,95624.57
2019-02-05T04:46:42.772Z,95623.67
2019-02-05T04:49:30.250Z,95622.94
2019-02-05T04:52:31.544Z,95623.67
2019-02-05T04:55:28.202Z,95619.77
2019-02-05T04:58:38.103Z,95626.45
2019-02-05T05:01:31.049Z,95630.52
2019-02-05T05:04:25.295Z,95629.87
2019-02-05T05:07:46.957Z,95626.80
2019-02-05T05:10:15.872Z,95633.78
2019-02-05T05:12:44.440Z,95629.69
2019-02-05T05:15:13.110Z,95627.66
2019-02-05T05:17:41.784Z,95631.80
2019-02-05T05:20:12.215Z,95622.14
2019-02-05T05:22:40.839Z,95629.30
2019-02-05T05:25:10.715Z,95625.04
2019-02-05T05:27:39.342Z,95623.10
2019-02-05T05:30:12.015Z,95621.19
2019-02-05T05:32:40.567Z,95628.89
2019-02-05T05:35:09.872Z,95624.17
2019-02-05T05:37:38.518Z,95631.36
2019-02-05T05:40:07.768Z,95624.53
2019-02-05T05:42:36.328Z,95628.66
2019-02-05T05:45:06.530Z,95634.25
2019-02-05T05:47:35.094Z,95630.08
2019-02-05T05:50:03.778Z,95638.78
2019-02-05T05:52:32.508Z,95638.68
2019-02-05T05:55:01.123Z,95640.28
2019-02-05T05:57:29.868Z,95639.19
2019-02-05T05:59:58.435Z,95638.58
2019-02-05T06:02:27.016Z,95632.98
2019-02-05T06:04:55.575Z,95642.25
2019-02-05T06:07:24.183Z,95648.86
2019-02-05T06:09:52.745Z,95637.12
2019-02-05T06:12:21.596Z,95643.93
2019-02-05T06:14:50.443Z,95645.58
2019-02-05T06:17:19.076Z,95640.38
2019-02-05T06:19:47.713Z,95639.81
2019-02-05T06:22:16.305Z,95636.25
2019-02-05T06:24:44.963Z,95639.94
2019-02-05T06:27:13.643Z,95646.38
2019-02-05T06:29:42.312Z,95656.08
2019-02-05T06:32:10.916Z,95644.58
2019-02-05T06:34:39.490Z,95648.16
2019-02-05T06:37:08.061Z,95662.59
2019-02-05T06:39:36.622Z,95663.79
2019-02-05T06:42:05.258Z,95664.31
2019-02-05T06:44:33.847Z,95666.52
2019-02-05T06:47:02.422Z,95667.80
2019-02-05T06:49:31.100Z,95670.19
2019-02-05T06:51:59.909Z,95673.63
2019-02-05T06:54:28.474Z,95678.26
2019-02-05T06:56:57.044Z,95675.54
2019-02-05T06:59:25.644Z,95685.91
2019-02-05T07:01:54.216Z,95689.19
2019-02-05T07:04:23.072Z,95691.47
2019-02-05T07:06:51.660Z,95702.61
2019-02-05T07:09:20.250Z,95707.34
2019-02-05T07:11:48.837Z,95711.48
2019-02-05T07:14:17.573Z,95713.30
2019-02-05T07:16:46.390Z,95719.19
2019-02-05T07:19:14.968Z,95729.12
2019-02-05T07:21:44.047Z,95732.80
2019-02-05T07:24:12.614Z,95734.47
2019-02-05T07:26:41.221Z,95730.21
2019-02-05T07:29:09.823Z,95734.77
2019-02-05T07:31:38.392Z,95744.03
2019-02-05T07:34:07.097Z,95740.30
2019-02-05T07:36:35.687Z,95748.32
2019-02-05T07:39:07.940Z,95748.83
2019-02-05T07:41:36.544Z,95752.69
2019-02-05T07:44:05.689Z,95754.30
2019-02-05T07:46:34.256Z,95758.56
2019-02-05T07:49:03.326Z,95755.30
2019-02-05T07:51:31.935Z,95762.83
2019-02-05T07:54:00.503Z,95762.64
2019-02-05T07:56:29.074Z,95765.11
2019-02-05T07:59:09.540Z,95767.80
2019-02-05T08:01:28.024Z,95765.62
2019-02-05T08:03:56.618Z,95766.53
2019-02-05T08:06:25.258Z,95767.88
2019-02-05T08:08:53.912Z,95767.14
2019-02-05T08:11:23.550Z,95765.83
2019-02-05T08:13:52.378Z,95765.71
2019-02-05T08:16:21.123Z,95770.40
2019-02-05T08:18:49.953Z,95763.88
2019-02-05T08:21:18.532Z,95761.20
2019-02-05T08:23:47.139Z,95759.44
2019-02-05T08:26:15.709Z,95760.86
2019-02-05T08:28:44.864Z,95762.30
2019-02-05T08:31:13.435Z,95757.46
2019-02-05T08:33:42.344Z,95760.27
2019-02-05T08:36:10.934Z,95748.19
2019-02-05T08:38:39.761Z,95757.30
2019-02-05T08:41:08.547Z,95752.74
2019-02-05T08:43:37.147Z,95758.86
2019-02-05T08:46:05.786Z,95759.97
2019-02-05T08:48:34.394Z,95764.72
2019-02-05T08:51:02.963Z,95772.73
2019-02-05T08:53:31.819Z,95774.69
2019-02-05T08:56:00.397Z,95776.20
2019-02-05T08:58:31.260Z,95784.13
2019-02-05T09:00:59.301Z,95787.63
2019-02-05T09:03:27.906Z,95794.41
2019-02-05T09:05:56.618Z,95792.88
2019-02-05T09:08:25.313Z,95795.99
2019-02-05T09:10:54.144Z,95792.53
2019-02-05T09:13:22.697Z,95788.13
2019-02-05T09:15:51.278Z,95798.55
2019-02-05T09:18:19.858Z,95803.81
2019-02-05T09:20:48.562Z,95795.52
2019-02-05T09:23:17.539Z,95799.02
2019-02-05T09:25:46.086Z,95798.28
2019-02-05T09:28:15.495Z,95804.38
2019-02-05T09:30:44.051Z,95805.59
2019-02-05T09:33:13.046Z,95805.53
2019-02-05T09:35:41.683Z,95805.27
2019-02-05T09:38:10.674Z,95815.26
2019-02-05T09:40:39.301Z,95813.97
2019-02-05T09:43:07.933Z,95821.30
2019-02-05T09:45:36.835Z,95820.12
2019-02-05T09:48:05.486Z,95825.02
2019-02-05T09:50:44.164Z,95826.84
2019-02-05T09:53:04.508Z,95832.39
2019-02-05T09:55:36.036Z,95830.91
2019-02-05T09:58:03.741Z,95820.92
2019-02-05T10:00:34.713Z,95823.50
2019-02-05T10:03:03.652Z,95828.83
2019-02-05T10:05:32.644Z,95821.55
2019-02-05T10:08:01.284Z,95826.81
2019-02-05T10:10:30.021Z,95823.47
2019-02-05T10:12:58.719Z,95831.67
2019-02-05T10:15:32.672Z,95828.02
2019-02-05T10:18:01.915Z,95835.41
2019-02-05T10:20:30.516Z,95842.33
2019-02-05T10:23:01.902Z,95847.66
2019-02-05T10:25:30.725Z,95843.00
2019-02-05T10:27:59.334Z,95851.41
2019-02-05T10:30:36.204Z,95850.61
2019-02-05T10:33:05.529Z,95774.50
2019-02-05T10:35:34.170Z,95848.50
2019-02-05T10:38:02.824Z,95835.17
2019-02-05T10:40:31.642Z,95850.13
2019-02-05T10:43:00.232Z,95847.45
2019-02-05T10:45:29.079Z,95698.72
2019-02-05T10:47:57.627Z,95843.77
2019-02-05T10:50:26.374Z,95858.12
2019-02-05T10:52:55.063Z,95858.12
2019-02-05T10:55:23.731Z,95860.11
2019-02-05T10:57:52.814Z,95861.34
2019-02-05T11:00:24.805Z,95861.34
2019-02-05T11:02:53.531Z,95857.08
2019-02-05T11:05:24.627Z,95855.80
2019-02-05T11:07:53.203Z,95855.80
2019-02-05T11:10:22.043Z,95858.95
2019-02-05T11:12:50.874Z,95853.98
2019-02-05T11:15:21.560Z,95853.98
2019-02-05T11:17:50.215Z,95847.54
2019-02-05T11:20:20.797Z,95857.62
2019-02-05T11:22:49.665Z,95851.77
2019-02-05T11:25:18.400Z,95851.77
2019-02-05T11:27:47.124Z,95859.84
2019-02-05T11:30:24.037Z,95855.34
2019-02-05T11:32:53.138Z,95855.34
2019-02-05T11:35:21.985Z,95856.28
2019-02-05T11:37:51.077Z,95850.09
2019-02-05T11:40:22.310Z,95851.56
2019-02-05T11:42:50.970Z,95854.63
2019-02-05T11:45:19.937Z,95854.63
2019-02-05T11:47:48.969Z,95850.93
2019-02-05T11:50:17.934Z,95852.32
2019-02-05T11:52:46.708Z,95847.00
2019-02-05T11:55:16.992Z,95845.64
2019-02-05T11:57:45.648Z,95855.46
2019-02-05T12:00:32.337Z,95850.58
2019-02-05T12:02:52.684Z,95851.88
2019-02-05T12:05:21.243Z,95856.84
2019-02-05T12:07:49.834Z,95855.17
2019-02-05T12:10:19.093Z,95853.66
2019-02-05T12:12:47.651Z,95849.28
2019-02-05T12:15:16.386Z,95847.63
2019-02-05T12:17:45.331Z,95849.09
2019-02-05T12:20:14.521Z,95843.95
2019-02-05T12:22:43.354Z,95838.36
2019-02-05T12:25:14.136Z,95834.56
2019-02-05T12:27:43.043Z,95835.80
2019-02-05T12:30:18.830Z,95838.89
2019-02-05T12:32:47.546Z,95836.00
2019-02-05T12:35:16.206Z,95830.69
2019-02-05T12:37:45.049Z,95826.79
2019-02-05T12:40:15.056Z,95822.31
2019-02-05T12:42:43.956Z,95818.75
2019-02-05T12:45:18.910Z,95818.75
2019-02-05T12:47:47.537Z,95827.80
2019-02-05T12:50:27.400Z,95823.89
2019-02-05T12:53:01.522Z,95828.74
2019-02-05T12:55:30.464Z,95822.28
2019-02-05T12:57:59.509Z,95822.28
2019-02-05T13:00:33.967Z,95825.89
2019-02-05T13:03:02.522Z,95824.25
2019-02-05T13:05:31.267Z,95822.56
2019-02-05T13:08:00.343Z,95825.66
2019-02-05T13:10:31.511Z,95825.27
2019-02-05T13:13:00.355Z,95819.55
2019-02-05T13:15:28.938Z,95818.36
2019-02-05T13:17:57.583Z,95826.37
2019-02-05T13:20:27.715Z,95825.51
2019-02-05T13:22:56.813Z,95825.61
2019-02-05T13:25:26.803Z,95831.98
2019-02-05T13:27:55.318Z,95828.67
2019-02-05T13:30:25.713Z,95826.82
2019-02-05T13:32:54.421Z,95830.52
2019-02-05T13:35:23.070Z,95826.11
2019-02-05T13:37:52.095Z,95838.31
2019-02-05T13:40:22.621Z,95833.94
2019-02-05T13:42:51.527Z,95834.08
2019-02-05T13:45:22.632Z,95838.44
2019-02-05T13:47:51.290Z,95843.22
2019-02-05T13:50:32.595Z,95844.09
2019-02-05T13:52:52.322Z,95844.62
2019-02-05T13:55:23.029Z,95853.67
2019-02-05T13:57:52.437Z,95849.67
2019-02-05T14:00:30.496Z,95856.80
2019-02-05T14:02:59.126Z,95856.66
2019-02-05T14:05:27.969Z,95857.36
2019-02-05T14:07:56.563Z,95857.98
2019-02-05T14:10:27.595Z,95861.24
2019-02-05T14:12:56.267Z,95866.09
2019-02-05T14:15:26.655Z,95865.93
2019-02-05T14:17:55.369Z,95867.45
2019-02-05T14:20:24.362Z,95868.64
2019-02-05T14:22:52.942Z,95869.20
2019-02-05T14:25:21.708Z,95872.75
2019-02-05T14:27:50.354Z,95876.25
2019-02-05T14:30:40.417Z,95872.58
2019-02-05T14:33:09.089Z,95869.83
2019-02-05T14:35:37.826Z,95863.16
2019-02-05T14:38:07.979Z,95862.06
2019-02-05T14:40:36.630Z,95866.89
2019-02-05T14:43:06.072Z,95872.36
2019-02-05T14:45:34.815Z,95868.17
2019-02-05T14:48:03.922Z,95867.48
2019-02-05T14:50:33.614Z,95875.34
2019-02-05T14:53:02.733Z,95866.88
2019-02-05T14:55:31.390Z,95868.77
2019-02-05T14:58:00.177Z,95875.00
2019-02-05T15:00:30.616Z,95873.62
2019-02-05T15:03:01.947Z,95868.09
2019-02-05T15:05:29.850Z,95868.52
2019-02-05T15:07:58.722Z,95866.62
2019-02-05T15:10:27.479Z,95870.48
2019-02-05T15:12:56.115Z,95872.59
2019-02-05T15:15:24.974Z,95866.59
2019-02-05T15:17:53.920Z,95862.14
2019-02-05T15:20:27.961Z,95866.31
2019-02-05T15:22:56.602Z,95869.53
2019-02-05T15:25:25.257Z,95874.78
2019-02-05T15:27:55.417Z,95875.86
2019-02-05T15:30:26.862Z,95877.48
2019-02-05T15:33:07.154Z,95877.94
2019-02-05T15:35:35.775Z,95876.30
2019-02-05T15:38:04.453Z,95883.17
2019-02-05T15:40:33.144Z,95880.61
2019-02-05T15:43:02.068Z,95880.65
2019-02-05T15:45:30.729Z,95878.75
2019-02-05T15:47:59.301Z,95883.62
2019-02-05T15:50:27.943Z,95887.14
2019-02-05T15:52:56.552Z,95881.03
2019-02-05T15:55:25.196Z,95885.86
2019-02-05T15:57:53.770Z,95882.64
2019-02-05T16:00:22.654Z,95884.97
2019-02-05T16:02:51.314Z,95879.75
2019-02-05T16:05:20.044Z,95872.02
2019-02-05T16:07:48.835Z,95873.69
2019-02-05T16:10:17.678Z,95873.33
2019-02-05T16:12:46.399Z,95876.67
2019-02-05T16:15:15.457Z,95869.94
2019-02-05T16:17:45.565Z,95868.11
2019-02-05T16:20:14.335Z,95866.39
2019-02-05T16:22:42.932Z,95869.28
2019-02-05T16:25:11.869Z,95867.56
2019-02-05T16:27:40.630Z,95870.39
2019-02-05T16:30:13.090Z,95871.57
2019-02-05T16:32:41.644Z,95874.11
2019-02-05T16:35:10.578Z,95879.88
2019-02-05T16:37:39.475Z,95874.83
2019-02-05T16:40:12.865Z,95880.26
2019-02-05T16:42:41.444Z,95876.80
2019-02-05T16:45:12.773Z,95871.16
2019-02-05T16:47:41.726Z,95871.06
2019-02-05T16:50:14.401Z,95878.41
2019-02-05T16:52:43.148Z,95873.72
2019-02-05T16:55:12.820Z,95877.95
2019-02-05T16:57:41.378Z,95880.69
2019-02-05T17:00:22.974Z,95883.45
2019-02-05T17:02:51.860Z,95877.27
2019-02-05T17:05:22.198Z,95884.34
2019-02-05T17:07:50.916Z,95881.92
2019-02-05T17:10:21.224Z,95883.14
2019-02-05T17:12:50.949Z,95893.55
2019-02-05T17:15:20.168Z,95897.31
2019-02-05T17:17:48.893Z,95895.27
2019-02-05T17:20:20.914Z,95902.30
2019-02-05T17:22:49.981Z,95901.73
2019-02-05T17:25:19.665Z,95898.52
2019-02-05T17:27:48.539Z,95896.86
2019-02-05T17:30:21.973Z,95896.94
2019-02-05T17:32:50.677Z,95895.61
2019-02-05T17:35:19.751Z,95899.83
2019-02-05T17:37:48.643Z,95896.81
2019-02-05T17:40:18.979Z,95891.63
2019-02-05T17:42:47.918Z,95902.44
2019-02-05T17:45:18.795Z,95902.81
2019-02-05T17:47:47.618Z,95898.17
2019-02-05T17:50:16.307Z,95895.42
2019-02-05T17:52:44.875Z,95890.99
2019-02-05T17:55:13.889Z,95883.84
2019-02-05T17:57:42.521Z,95881.92
2019-02-05T18:00:15.450Z,95879.32
2019-02-05T18:02:51.386Z,95876.17
2019-02-05T18:05:15.225Z,95885.03
2019-02-05T18:07:43.945Z,95881.99
2019-02-05T18:10:14.540Z,95878.57
2019-02-05T18:12:43.135Z,95881.73
2019-02-05T18:15:15.126Z,95882.35
2019-02-05T18:17:43.761Z,95883.77
2019-02-05T18:20:12.471Z,95884.75
2019-02-05T18:22:41.375Z,95878.34
2019-02-05T18:25:11.528Z,95883.47
2019-02-05T18:27:40.175Z,95884.25
2019-02-05T18:30:18.441Z,95877.53
2019-02-05T18:32:47.168Z,95884.92
2019-02-05T18:35:16.409Z,95875.56
2019-02-05T18:37:45.512Z,95880.77
2019-02-05T18:40:15.129Z,95880.47
2019-02-05T18:42:43.783Z,95875.47
2019-02-05T18:45:13.755Z,95876.76
2019-02-05T18:47:42.506Z,95881.27
2019-02-05T18:50:14.158Z,95877.83
2019-02-05T18:52:43.433Z,95877.30
2019-02-05T18:55:12.146Z,95888.53
2019-02-05T18:57:40.846Z,95886.75
2019-02-05T19:00:23.945Z,95884.69
2019-02-05T19:02:52.706Z,95883.77
2019-02-05T19:05:21.884Z,95879.06
2019-02-05T19:07:50.456Z,95878.69
2019-02-05T19:10:20.954Z,95884.13
2019-02-05T19:12:49.960Z,95879.97
2019-02-05T19:15:20.690Z,95882.27
2019-02-05T19:17:49.483Z,95882.38
2019-02-05T19:20:18.744Z,95876.45
2019-02-05T19:22:47.544Z,95881.36
2019-02-05T19:25:32.555Z,95879.98
2019-02-05T19:28:01.169Z,95878.56
2019-02-05T19:30:31.095Z,95881.81
2019-02-05T19:33:00.076Z,95881.58
2019-02-05T19:35:28.670Z,95875.04
2019-02-05T19:37:57.237Z,95879.85
2019-02-05T19:40:25.833Z,95880.82
2019-02-05T19:42:54.393Z,95873.27
2019-02-05T19:45:42.445Z,95869.29
2019-02-05T19:48:17.654Z,95875.29
2019-02-05T19:50:46.630Z,95877.27
2019-02-05T19:53:15.199Z,95874.28
2019-02-05T19:55:43.987Z,95878.20
2019-02-05T19:58:12.659Z,95885.48
2019-02-05T20:00:41.239Z,95886.98
2019-02-05T20:03:10.210Z,95883.98
2019-02-05T20:05:39.103Z,95887.34
2019-02-05T20:08:07.807Z,95877.69
2019-02-05T20:10:36.426Z,95878.13
2019-02-05T20:13:05.257Z,95876.29
2019-02-05T20:15:33.838Z,95876.72
2019-02-05T20:18:02.643Z,95868.91
2019-02-05T20:20:31.795Z,95868.30
2019-02-05T20:23:00.371Z,95871.59
2019-02-05T20:25:28.962Z,95866.70
2019-02-05T20:27:57.901Z,95872.78
2019-02-05T20:30:26.841Z,95867.55
2019-02-05T20:32:55.445Z,95871.42
2019-02-05T20:35:24.199Z,95882.16
2019-02-05T20:37:53.249Z,95873.53
2019-02-05T20:40:22.044Z,95870.25
2019-02-05T20:42:50.777Z,95870.77
2019-02-05T20:45:19.434Z,95867.82
2019-02-05T20:47:48.095Z,95868.50
2019-02-05T20:50:16.708Z,95872.34
2019-02-05T20:52:45.364Z,95872.31
2019-02-05T20:55:14.884Z,95867.80
2019-02-05T20:57:43.691Z,95867.09
2019-02-05T21:00:15.479Z,95859.59
2019-02-05T21:02:44.086Z,95858.75
2019-02-05T21:05:14.017Z,95866.16
2019-02-05T21:07:42.679Z,95872.99
2019-02-05T21:10:14.291Z,95872.05
2019-02-05T21:12:43.183Z,95875.81
2019-02-05T21:15:12.229Z,95876.23
2019-02-05T21:17:40.997Z,95866.88
2019-02-05T21:20:12.086Z,95866.89
2019-02-05T21:22:40.697Z,95879.09
2019-02-05T21:25:11.159Z,95870.14
2019-02-05T21:27:41.850Z,95866.30
2019-02-05T21:30:13.274Z,95869.30
2019-02-05T21:32:41.869Z,95866.03
2019-02-05T21:35:10.602Z,95856.70
2019-02-05T21:37:39.272Z,95854.77
2019-02-05T21:40:11.042Z,95861.80
2019-02-05T21:42:39.809Z,95861.26
2019-02-05T21:45:10.782Z,95865.10
2019-02-05T21:47:39.329Z,95860.33
2019-02-05T21:50:10.522Z,95863.22
2019-02-05T21:52:39.053Z,95862.80
2019-02-05T21:55:09.309Z,95870.68
2019-02-05T21:57:38.277Z,95863.66
2019-02-05T22:00:21.616Z,95861.58
2019-02-05T22:02:50.224Z,95860.09
2019-02-05T22:05:18.900Z,95861.20
2019-02-05T22:07:47.419Z,95859.40
2019-02-05T22:10:16.651Z,95850.70
2019-02-05T22:12:45.616Z,95851.48
2019-02-05T22:15:14.774Z,95845.41
2019-02-05T22:17:43.506Z,95842.05
2019-02-05T22:20:14.632Z,95840.27
2019-02-05T22:22:43.190Z,95839.92
2019-02-05T22:25:17.553Z,95833.52
2019-02-05T22:27:46.134Z,95836.89
2019-02-05T22:30:17.440Z,95838.25
2019-02-05T22:32:46.050Z,95843.24
2019-02-05T22:35:14.859Z,95844.22
2019-02-05T22:37:43.857Z,95849.70
2019-02-05T22:40:12.928Z,95849.38
2019-02-05T22:42:41.520Z,95842.83
2019-02-05T22:45:11.066Z,95840.77
2019-02-05T22:47:39.669Z,95838.53
2019-02-05T22:50:11.656Z,95844.40
2019-02-05T22:52:40.334Z,95836.86
2019-02-05T22:55:09.278Z,95837.02
2019-02-05T22:57:37.863Z,95829.64
2019-02-05T23:00:21.283Z,95835.88
2019-02-05T23:02:49.862Z,95832.15
2019-02-05T23:05:49.571Z,95828.25
2019-02-05T23:08:18.140Z,95826.73
2019-02-05T23:11:05.840Z,95822.27
2019-02-05T23:13:35.118Z,95820.73
2019-02-05T23:16:03.768Z,95821.03
2019-02-05T23:18:32.424Z,95817.24
2019-02-05T23:21:01.331Z,95815.31
2019-02-05T23:23:29.993Z,95818.81
2019-02-05T23:25:58.571Z,95824.37
2019-02-05T23:28:27.150Z,95827.27
2019-02-05T23:30:55.719Z,95837.72
2019-02-05T23:33:24.404Z,95834.56
2019-02-05T23:35:52.969Z,95841.69
2019-02-05T23:38:21.572Z,95835.48
2019-02-05T23:40:50.129Z,95829.05
2019-02-05T23:43:19.031Z,95819.60
2019-02-05T23:46:00.998Z,95821.61
2019-02-05T23:48:18.191Z,95828.97
2019-02-05T23:50:46.778Z,95817.14
2019-02-05T23:53:15.369Z,95821.20
2019-02-05T23:55:44.042Z,95810.49
2019-02-05T23:58:12.714Z,95817.84
